Tropical Cyclones
[Index]
Main Index Home Page Stock Weather Photos Extreme Storms Discussion Storm News and Storm Chasing Reports Tropical Cyclones / Hurricanes / Typhoons Weather Data and Links Wild Fires / Bushfires Weather Observation Techniques Weather Picture Catalogue Tornado Pictures and Reports Stock Video Footage and DVDs for sale
Season 1985-1986 Tropical Cyclone WINIFRED Track Map
Season 1985-1986 Summaries: [BoM-AU] [JTWC-AU] [JTWC-SIO] [JTWC-SPAC] [JTWC-SH]
<<- Previous TC | BoM 1985-1986 Season | Next TC ->>

click for intensity scale information  Lat/long Grid: Show Hide

 Date Labels: Show Hide

Bureau of Meteorology Tropical Cyclone Data

Name: WINIFRED
Number: 685 / 198586_06

27 Jan 1986 06:00 UTC to 05 Feb 1986 18:00 UTC

    date/time    lat    long    hPa   cat  kts
1986-01-27 06   12.9   144.8   1003         19          
1986-01-27 12   12.7   144.8   1004         16          
1986-01-27 18   12.7   145.1   1003         16          
1986-01-28 00   12.6   145.4   1004         16          
1986-01-28 06   12.6   145.7   1003         16          
1986-01-28 12   12.6   146.1   1003         16          
1986-01-28 18   12.8   146.6   1002         19          
1986-01-29 00   13.0   146.7   1000         25          
1986-01-29 06   13.4   146.6    998         31          
1986-01-29 12   13.8   146.6    998         33          
1986-01-29 18   14.1   146.5    995    1    41          
1986-01-30 00   14.4   146.5    994    1    45          
1986-01-30 06   14.7   146.5    991    1    49          
1986-01-30 12   14.9   146.7    987    1    51          
1986-01-30 18   15.1   147.0    983    2    52          
1986-01-31 00   15.3   147.3    978    2    54          
1986-01-31 06   15.7   147.7    975    2    56          
1986-01-31 12   16.1   147.9    973    2    58          
1986-01-31 18   16.4   147.7    972    2    60          
1986-02-01 00   16.9   147.1    968    3    64          
1986-02-01 06   17.5   146.5    961    3    64          
1986-02-01 09   17.6   146.1    957    3    68          
1986-02-01 12   17.8   145.7    982    2    51          
1986-02-01 18   18.5   145.0    991    1    47          
1986-02-02 00   19.3   144.3    995    1    31          
1986-02-02 06   20.2   143.5    996         27          
1986-02-02 12   20.5   142.8    997         16          
1986-02-02 18   20.6   142.3    998         16          
1986-02-03 00   20.6   141.8    999         16          
1986-02-03 06   20.8   141.4    999         21          
1986-02-03 12   21.2   141.8   1000         14          
1986-02-03 18   21.4   142.2   1002         12          
1986-02-04 00   21.6   142.5   1004         10          
1986-02-04 06   21.9   142.8   1003         8          
1986-02-04 12   22.2   142.9   1004         6          
1986-02-04 18   22.3   143.1   1003         6          
1986-02-05 00   22.3   143.3   1006         6          
1986-02-05 06   22.0   143.6   1003         6          
1986-02-05 12   21.5   143.9   1003         6          
1986-02-05 18   20.9   144.2   1003         6          
Winds are 10-min average.

Tropical cyclone tracks developed by Michael Bath using data from the Bureau of Meteorology and Google Maps.


[Australian Severe Weather index] [Copyright Notice] [Email Contacts] [Search This Site] [Privacy Policy]
Document: tropical_cyclone_winifred.htm Updated: 30 May 2013